Terminal Aerodrome Forecast
Issued by NWS

Home | Current Version | Previous Version | Text Only | Print | Product List | Glossary On
Versions: 1 2 3 4 5 6 7 8 9 10 11 12 13
000
FTUS46 KSTO 202300
TAFMHR
TAF
KMHR 202320Z 2100/2124 31008KT P6SM FEW250
     FM210200 VRB05KT P6SM FEW250
     FM211900 20010KT P6SM OVC200=

USA.gov is the U.S. government's official web portal to all federal, state and local government web resources and services.